Time;durP1;ratioP1;P1;durP2;ratioP2;P2;SDS_P1;SDS_P2;PMS_P1;PMS_P2;Temp;Humidity;BMP_temperature;BMP_pressure;BME280_temperature;BME280_humidity;BME280_pressure;Samples;Min_cycle;Max_cycle;Signal;HPM_P1;HPM_P2
2023/02/09 00:01:03;;;;;;;33.80;25.40;;;;;;;;;;4957626;28;20229;-84
2023/02/09 00:03:32;;;;;;;34.13;26.97;;;;;;;;;;4976387;28;20222;-85
2023/02/09 00:05:58;;;;;;;34.97;27.43;;;;;;;;;;4971515;28;20230;-85
2023/02/09 00:08:27;;;;;;;33.97;26.63;;;;;;;;;;4969774;28;20229;-85
2023/02/09 00:10:53;;;;;;;35.67;26.60;;;;;;;;;;5021711;28;20680;-85
2023/02/09 00:13:24;;;;;;;32.40;26.67;;;;;;;;;;4969563;28;20300;-83
2023/02/09 00:15:57;;;;;;;34.60;25.70;;;;;;;;;;4971400;28;20261;-83
2023/02/09 00:18:23;;;;;;;31.67;25.37;;;;;;;;;;4955940;28;20279;-84
2023/02/09 00:21:15;;;;;;;36.30;27.07;;;;;;;;;;4989820;28;20233;-82
2023/02/09 00:23:43;;;;;;;33.03;25.67;;;;;;;;;;4959012;28;20328;-84
2023/02/09 00:26:09;;;;;;;39.93;26.43;;;;;;;;;;4957023;28;20228;-85
2023/02/09 00:28:37;;;;;;;36.47;27.10;;;;;;;;;;4969719;28;20279;-84
2023/02/09 00:31:07;;;;;;;31.77;25.23;;;;;;;;;;4973595;28;20240;-83
2023/02/09 00:33:33;;;;;;;35.23;28.30;;;;;;;;;;4970161;28;20221;-84
2023/02/09 00:36:07;;;;;;;35.77;27.60;;;;;;;;;;4950331;28;20240;-83
2023/02/09 00:38:34;;;;;;;34.57;27.03;;;;;;;;;;4963231;28;20226;-84
2023/02/09 00:41:01;;;;;;;33.77;26.97;;;;;;;;;;4997285;28;20674;-85
2023/02/09 00:43:32;;;;;;;33.67;27.10;;;;;;;;;;4982122;28;20222;-84
2023/02/09 00:46:00;;;;;;;35.03;25.83;;;;;;;;;;4994296;28;20249;-82
2023/02/09 00:48:28;;;;;;;33.37;25.03;;;;;;;;;;4998223;28;20884;-85
2023/02/09 00:50:55;;;;;;;34.73;26.83;;;;;;;;;;4989231;28;20226;-84
2023/02/09 00:53:21;;;;;;;34.60;25.87;;;;;;;;;;4980444;28;20650;-85
2023/02/09 00:55:47;;;;;;;36.43;26.10;;;;;;;;;;4954502;28;20218;-85
2023/02/09 00:58:13;;;;;;;32.40;26.27;;;;;;;;;;4961132;28;20232;-83
2023/02/09 01:00:39;;;;;;;31.63;25.90;;;;;;;;;;4990024;28;20237;-83
2023/02/09 01:03:04;;;;;;;31.57;26.33;;;;;;;;;;4981310;28;20234;-86
2023/02/09 01:05:32;;;;;;;31.80;27.00;;;;;;;;;;4957731;28;20720;-85
2023/02/09 01:08:00;;;;;;;32.40;25.13;;;;;;;;;;4977693;28;20234;-84
2023/02/09 01:10:28;;;;;;;29.67;25.47;;;;;;;;;;4977615;28;20226;-85
2023/02/09 01:12:53;;;;;;;33.17;26.00;;;;;;;;;;4969908;28;20231;-85
2023/02/09 01:15:19;;;;;;;32.60;25.67;;;;;;;;;;4986014;28;20230;-85
2023/02/09 01:17:44;;;;;;;34.07;26.87;;;;;;;;;;4977412;28;20289;-85
2023/02/09 01:20:14;;;;;;;36.77;26.47;;;;;;;;;;4966161;28;20767;-85
2023/02/09 01:22:42;;;;;;;36.00;25.93;;;;;;;;;;4990934;28;20995;-84
2023/02/09 01:25:08;;;;;;;39.27;27.47;;;;;;;;;;4963864;28;20227;-84
2023/02/09 01:27:34;;;;;;;38.60;26.30;;;;;;;;;;4965501;28;20229;-85
2023/02/09 01:30:00;;;;;;;35.87;26.27;;;;;;;;;;4971784;28;20233;-85
2023/02/09 01:32:30;;;;;;;34.87;26.87;;;;;;;;;;4961402;28;20284;-85
2023/02/09 01:34:58;;;;;;;32.50;25.77;;;;;;;;;;4959147;28;20225;-84
2023/02/09 01:37:24;;;;;;;35.83;25.70;;;;;;;;;;4955382;28;20225;-85
2023/02/09 01:39:50;;;;;;;36.00;27.03;;;;;;;;;;5005597;28;20229;-86
2023/02/09 01:42:21;;;;;;;33.87;26.60;;;;;;;;;;4957818;28;20706;-85
2023/02/09 01:45:05;;;;;;;36.33;26.20;;;;;;;;;;4996462;28;20280;-84
2023/02/09 01:47:42;;;;;;;36.93;26.17;;;;;;;;;;4981753;28;20237;-85
2023/02/09 01:50:10;;;;;;;37.93;25.67;;;;;;;;;;4974289;28;20232;-84
2023/02/09 01:52:40;;;;;;;33.83;25.00;;;;;;;;;;5002960;28;20229;-85
2023/02/09 01:55:07;;;;;;;35.47;26.17;;;;;;;;;;4971053;28;20643;-85
2023/02/09 01:57:39;;;;;;;37.03;26.23;;;;;;;;;;5007759;28;20228;-84
2023/02/09 02:00:13;;;;;;;30.67;25.63;;;;;;;;;;4974310;28;20237;-85
2023/02/09 02:02:46;;;;;;;31.33;24.47;;;;;;;;;;4976451;28;20241;-84
2023/02/09 02:05:15;;;;;;;35.83;27.00;;;;;;;;;;4961099;28;20684;-83
2023/02/09 02:08:00;;;;;;;30.03;24.23;;;;;;;;;;4974618;28;20221;-84
2023/02/09 02:10:26;;;;;;;33.60;25.37;;;;;;;;;;4984933;28;20253;-83
2023/02/09 02:12:56;;;;;;;28.90;23.37;;;;;;;;;;4982601;28;20259;-85
2023/02/09 02:15:30;;;;;;;32.97;24.97;;;;;;;;;;4956861;28;20229;-85
2023/02/09 02:18:29;;;;;;;30.87;23.67;;;;;;;;;;4939804;28;20426;-86
2023/02/09 02:21:07;;;;;;;29.10;23.10;;;;;;;;;;4975221;28;20241;-84
2023/02/09 02:23:50;;;;;;;31.17;24.20;;;;;;;;;;4976729;28;20290;-86
2023/02/09 02:26:33;;;;;;;36.33;24.23;;;;;;;;;;4996493;28;20717;-85
2023/02/09 02:29:04;;;;;;;36.37;25.77;;;;;;;;;;4995556;28;20229;-84
2023/02/09 02:31:42;;;;;;;33.07;24.73;;;;;;;;;;4983671;28;20253;-85
2023/02/09 02:34:15;;;;;;;38.03;26.40;;;;;;;;;;4999368;28;20234;-85
2023/02/09 02:37:14;;;;;;;32.93;24.67;;;;;;;;;;4961730;28;20221;-86
2023/02/09 02:40:17;;;;;;;31.33;24.23;;;;;;;;;;5011156;28;20274;-84
2023/02/09 02:42:54;;;;;;;32.47;24.80;;;;;;;;;;5024515;28;20233;-84
2023/02/09 02:45:22;;;;;;;32.90;24.73;;;;;;;;;;5024535;28;20244;-84
2023/02/09 02:47:57;;;;;;;32.27;24.07;;;;;;;;;;4996279;28;20238;-85
2023/02/09 02:50:24;;;;;;;34.63;24.63;;;;;;;;;;4963936;28;20236;-86
2023/02/09 02:52:50;;;;;;;34.67;25.73;;;;;;;;;;4992192;28;20300;-83
2023/02/09 02:55:20;;;;;;;30.80;24.17;;;;;;;;;;4995714;28;20218;-85
2023/02/09 02:57:48;;;;;;;31.80;24.00;;;;;;;;;;4980605;28;20316;-85
2023/02/09 03:00:27;;;;;;;29.47;23.47;;;;;;;;;;5005170;28;20249;-85
2023/02/09 03:02:53;;;;;;;30.07;22.60;;;;;;;;;;4957640;28;20305;-85
2023/02/09 03:05:21;;;;;;;37.30;24.97;;;;;;;;;;4994256;28;20613;-83
2023/02/09 03:07:47;;;;;;;32.13;25.17;;;;;;;;;;4956883;28;20229;-84
2023/02/09 03:10:41;;;;;;;34.30;25.03;;;;;;;;;;4997495;28;20226;-85
2023/02/09 03:13:29;;;;;;;29.73;23.13;;;;;;;;;;4964104;28;20225;-85
2023/02/09 03:16:23;;;;;;;31.23;23.97;;;;;;;;;;5005948;28;20686;-85
2023/02/09 03:19:22;;;;;;;29.93;22.83;;;;;;;;;;4993521;28;20229;-85
2023/02/09 03:21:55;;;;;;;34.10;23.60;;;;;;;;;;4965488;28;20240;-84
2023/02/09 03:24:45;;;;;;;28.40;20.67;;;;;;;;;;4997754;28;20235;-85
2023/02/09 03:27:32;;;;;;;30.97;22.77;;;;;;;;;;4999530;28;20229;-84
2023/02/09 03:30:03;;;;;;;30.83;23.40;;;;;;;;;;4996311;28;20305;-85
2023/02/09 03:32:28;;;;;;;29.23;21.77;;;;;;;;;;4961650;28;20287;-84
2023/02/09 03:34:54;;;;;;;31.33;23.97;;;;;;;;;;4976972;28;20285;-84
2023/02/09 03:37:24;;;;;;;30.90;23.50;;;;;;;;;;5004822;28;20242;-84
2023/02/09 03:39:52;;;;;;;32.57;23.27;;;;;;;;;;4985896;28;20230;-84
2023/02/09 03:42:18;;;;;;;34.37;25.20;;;;;;;;;;4988480;28;20310;-85
2023/02/09 03:44:43;;;;;;;30.87;23.23;;;;;;;;;;5000249;28;20229;-84
2023/02/09 03:47:09;;;;;;;29.27;22.90;;;;;;;;;;4969365;28;20222;-84
2023/02/09 03:49:38;;;;;;;30.73;23.23;;;;;;;;;;4985308;28;20229;-84
2023/02/09 03:52:09;;;;;;;28.27;22.17;;;;;;;;;;4960732;28;20896;-84
2023/02/09 03:54:35;;;;;;;32.00;22.50;;;;;;;;;;4974182;28;20237;-83
2023/02/09 03:57:01;;;;;;;32.17;22.87;;;;;;;;;;4971552;28;20225;-84
2023/02/09 03:59:27;;;;;;;31.07;23.10;;;;;;;;;;4990588;28;20222;-85
2023/02/09 04:01:55;;;;;;;31.70;23.10;;;;;;;;;;4959197;28;20229;-84
2023/02/09 04:04:20;;;;;;;33.60;25.13;;;;;;;;;;4990995;28;20214;-85
2023/02/09 04:06:48;;;;;;;29.27;22.67;;;;;;;;;;4960746;28;20217;-83
2023/02/09 04:09:16;;;;;;;33.50;22.67;;;;;;;;;;4978058;28;20217;-83
2023/02/09 04:11:45;;;;;;;31.30;23.33;;;;;;;;;;4958852;28;20222;-83
2023/02/09 04:14:11;;;;;;;33.27;23.40;;;;;;;;;;4992037;28;20690;-85
2023/02/09 04:16:39;;;;;;;34.33;23.43;;;;;;;;;;4965140;28;20240;-85
2023/02/09 04:19:09;;;;;;;34.97;23.90;;;;;;;;;;4977559;28;20230;-84
2023/02/09 04:21:35;;;;;;;31.87;23.77;;;;;;;;;;4962629;28;20340;-84
2023/02/09 04:24:01;;;;;;;28.73;22.17;;;;;;;;;;4997023;28;20721;-83
2023/02/09 04:26:26;;;;;;;29.80;22.20;;;;;;;;;;4990165;28;20221;-84
2023/02/09 04:28:57;;;;;;;36.87;23.13;;;;;;;;;;4999269;28;20234;-85
2023/02/09 04:31:25;;;;;;;37.47;24.83;;;;;;;;;;4954723;28;20240;-86
2023/02/09 04:33:51;;;;;;;31.90;23.57;;;;;;;;;;5004552;28;20221;-84
2023/02/09 04:36:16;;;;;;;33.90;24.33;;;;;;;;;;4956176;28;20638;-84
2023/02/09 04:38:44;;;;;;;32.67;23.60;;;;;;;;;;4961951;28;20222;-82
2023/02/09 04:41:12;;;;;;;32.60;23.13;;;;;;;;;;4982003;28;20853;-85
2023/02/09 04:43:46;;;;;;;31.90;23.17;;;;;;;;;;4988919;28;20249;-83
2023/02/09 04:46:23;;;;;;;30.33;23.40;;;;;;;;;;4972830;28;21047;-84
2023/02/09 04:48:50;;;;;;;26.67;20.53;;;;;;;;;;4958611;28;20224;-83
2023/02/09 04:51:16;;;;;;;30.50;22.87;;;;;;;;;;4970938;28;20243;-85
2023/02/09 04:53:46;;;;;;;31.90;22.83;;;;;;;;;;4970848;28;20218;-84
2023/02/09 04:56:13;;;;;;;30.97;22.60;;;;;;;;;;4993102;28;20308;-84
2023/02/09 05:01:25;;;;;;;30.57;21.87;;;;;;;;;;4996086;28;20221;-84
2023/02/09 05:03:55;;;;;;;29.90;22.57;;;;;;;;;;4959857;28;20303;-85
2023/02/09 05:06:21;;;;;;;28.93;22.47;;;;;;;;;;4987373;28;20234;-86
2023/02/09 05:08:47;;;;;;;33.13;22.63;;;;;;;;;;4966609;28;20269;-86
2023/02/09 05:11:13;;;;;;;31.57;22.10;;;;;;;;;;4981399;28;20218;-85
2023/02/09 05:13:38;;;;;;;29.03;21.63;;;;;;;;;;4957261;28;20220;-84
2023/02/09 05:16:08;;;;;;;28.50;22.80;;;;;;;;;;4993356;28;20222;-85
2023/02/09 05:18:34;;;;;;;28.73;22.27;;;;;;;;;;4981828;28;20225;-85
2023/02/09 05:21:02;;;;;;;25.70;20.70;;;;;;;;;;4994526;28;20218;-85
2023/02/09 05:23:29;;;;;;;30.67;21.57;;;;;;;;;;4965485;28;20281;-86
2023/02/09 05:25:59;;;;;;;29.50;20.07;;;;;;;;;;4983123;28;20273;-86
2023/02/09 05:28:27;;;;;;;29.03;21.67;;;;;;;;;;4982408;28;20214;-86
2023/02/09 05:30:53;;;;;;;30.00;20.87;;;;;;;;;;4983196;28;20296;-81
2023/02/09 05:33:23;;;;;;;30.50;21.67;;;;;;;;;;5000845;28;20253;-85
2023/02/09 05:35:51;;;;;;;31.03;22.67;;;;;;;;;;4981882;28;20229;-85
2023/02/09 05:38:19;;;;;;;28.80;22.27;;;;;;;;;;4969806;28;20329;-85
2023/02/09 05:40:45;;;;;;;28.33;21.43;;;;;;;;;;4998976;28;20233;-85
2023/02/09 05:43:11;;;;;;;32.70;23.40;;;;;;;;;;4953110;28;20229;-86
2023/02/09 05:45:37;;;;;;;34.00;24.53;;;;;;;;;;4972276;28;20225;-86
2023/02/09 05:48:05;;;;;;;27.57;21.17;;;;;;;;;;4973369;28;20222;-86
2023/02/09 05:50:34;;;;;;;30.27;23.20;;;;;;;;;;4974912;28;20221;-86
2023/02/09 05:53:07;;;;;;;34.03;22.70;;;;;;;;;;4968825;28;20270;-85
2023/02/09 05:55:33;;;;;;;28.73;21.90;;;;;;;;;;4985439;28;20641;-85
2023/02/09 05:57:58;;;;;;;31.60;23.87;;;;;;;;;;4993225;28;20222;-85
2023/02/09 06:00:25;;;;;;;33.57;23.30;;;;;;;;;;4947418;28;20250;-85
2023/02/09 06:02:51;;;;;;;28.80;23.50;;;;;;;;;;4987988;28;20233;-86
2023/02/09 06:05:19;;;;;;;34.30;22.87;;;;;;;;;;4985042;28;20224;-84
2023/02/09 06:07:52;;;;;;;29.20;22.93;;;;;;;;;;4977761;28;20359;-85
2023/02/09 06:10:18;;;;;;;30.30;22.83;;;;;;;;;;4992261;28;20305;-85
2023/02/09 06:12:44;;;;;;;30.07;20.80;;;;;;;;;;4977604;28;20260;-84
2023/02/09 06:15:11;;;;;;;30.07;21.80;;;;;;;;;;5009102;28;20277;-85
2023/02/09 06:17:39;;;;;;;29.27;21.23;;;;;;;;;;4952685;28;20221;-86
2023/02/09 06:20:05;;;;;;;27.97;21.63;;;;;;;;;;4962090;28;20240;-85
2023/02/09 06:22:33;;;;;;;31.77;21.27;;;;;;;;;;4976321;28;20821;-85
2023/02/09 06:25:01;;;;;;;31.03;22.73;;;;;;;;;;4993848;28;20218;-82
2023/02/09 06:27:26;;;;;;;30.03;22.00;;;;;;;;;;4990547;28;20287;-84
2023/02/09 06:29:57;;;;;;;31.83;21.03;;;;;;;;;;4972563;28;20253;-85
2023/02/09 06:32:22;;;;;;;29.50;21.00;;;;;;;;;;4997466;28;20479;-84
2023/02/09 06:34:48;;;;;;;29.80;20.73;;;;;;;;;;4991412;28;20222;-84
2023/02/09 06:37:15;;;;;;;33.20;23.23;;;;;;;;;;4992463;28;20829;-85
2023/02/09 06:39:45;;;;;;;31.60;21.57;;;;;;;;;;4974386;28;20249;-86
2023/02/09 06:42:13;;;;;;;28.00;22.43;;;;;;;;;;4993124;28;20252;-86
2023/02/09 06:44:44;;;;;;;30.50;22.83;;;;;;;;;;4980225;28;20221;-85
2023/02/09 06:47:14;;;;;;;30.10;21.37;;;;;;;;;;4970235;28;20215;-85
2023/02/09 06:49:39;;;;;;;31.10;22.60;;;;;;;;;;4981152;28;20228;-85
2023/02/09 06:52:05;;;;;;;31.07;22.00;;;;;;;;;;4991727;28;20226;-85
2023/02/09 06:54:35;;;;;;;28.23;21.53;;;;;;;;;;4958730;28;20936;-86
2023/02/09 06:57:01;;;;;;;30.03;21.73;;;;;;;;;;4981688;28;20217;-85
2023/02/09 06:59:28;;;;;;;27.30;21.40;;;;;;;;;;4972656;28;20232;-86
2023/02/09 07:01:56;;;;;;;28.30;22.77;;;;;;;;;;4983347;28;20226;-86
2023/02/09 07:04:22;;;;;;;31.00;22.47;;;;;;;;;;4958757;28;20209;-85
2023/02/09 07:06:50;;;;;;;27.30;20.73;;;;;;;;;;4976577;28;20221;-84
2023/02/09 07:09:20;;;;;;;27.70;20.70;;;;;;;;;;4964671;28;20225;-86
2023/02/09 07:11:48;;;;;;;28.10;21.67;;;;;;;;;;4977125;28;20313;-84
2023/02/09 07:14:16;;;;;;;32.00;21.07;;;;;;;;;;4997379;28;20296;-86
2023/02/09 07:16:41;;;;;;;28.60;20.87;;;;;;;;;;4991393;28;20221;-85
2023/02/09 07:19:11;;;;;;;27.10;20.03;;;;;;;;;;4991147;28;20279;-86
2023/02/09 07:21:37;;;;;;;26.37;19.57;;;;;;;;;;4972779;28;20238;-85
2023/02/09 07:24:05;;;;;;;25.97;19.07;;;;;;;;;;4989628;28;20229;-85
2023/02/09 07:26:31;;;;;;;26.10;19.50;;;;;;;;;;4977884;28;20253;-83
2023/02/09 07:28:59;;;;;;;24.73;20.03;;;;;;;;;;4992208;28;20245;-86
2023/02/09 07:31:25;;;;;;;23.53;18.77;;;;;;;;;;4961902;28;20257;-85
2023/02/09 07:33:57;;;;;;;23.43;17.90;;;;;;;;;;4980167;28;20224;-85
2023/02/09 07:36:22;;;;;;;24.97;17.93;;;;;;;;;;4958886;28;21767;-85
2023/02/09 07:38:50;;;;;;;22.40;16.07;;;;;;;;;;4974772;28;20522;-84
2023/02/09 07:41:20;;;;;;;22.40;15.20;;;;;;;;;;4991531;28;20240;-84
2023/02/09 07:43:50;;;;;;;18.87;14.73;;;;;;;;;;4995327;28;20262;-85
2023/02/09 07:46:19;;;;;;;22.87;15.83;;;;;;;;;;5005058;28;20222;-84
2023/02/09 07:48:48;;;;;;;21.07;15.53;;;;;;;;;;5005891;28;20229;-85
2023/02/09 07:51:14;;;;;;;21.10;14.73;;;;;;;;;;4982742;28;20229;-83
2023/02/09 07:53:39;;;;;;;20.20;14.17;;;;;;;;;;4957630;28;20748;-84
2023/02/09 07:56:05;;;;;;;21.83;17.17;;;;;;;;;;4983722;28;20233;-83
2023/02/09 07:58:31;;;;;;;17.53;15.67;;;;;;;;;;4982354;28;20232;-83
2023/02/09 08:01:04;;;;;;;18.57;14.57;;;;;;;;;;4983389;28;20252;-82
2023/02/09 08:03:36;;;;;;;16.73;13.37;;;;;;;;;;5009805;28;20244;-83
2023/02/09 08:06:18;;;;;;;17.23;14.07;;;;;;;;;;4980922;28;20257;-84
2023/02/09 08:08:46;;;;;;;37.33;17.47;;;;;;;;;;4988424;28;20675;-84
2023/02/09 08:11:16;;;;;;;20.00;14.73;;;;;;;;;;4994980;28;20221;-85
2023/02/09 08:13:44;;;;;;;16.77;13.20;;;;;;;;;;4980767;28;20243;-85
2023/02/09 08:16:12;;;;;;;16.00;12.83;;;;;;;;;;4982039;28;20217;-84
2023/02/09 08:18:44;;;;;;;21.00;13.20;;;;;;;;;;4965961;28;20306;-84
2023/02/09 08:21:13;;;;;;;14.53;11.37;;;;;;;;;;4975393;28;20226;-84
2023/02/09 08:23:41;;;;;;;12.77;11.17;;;;;;;;;;4978020;28;20746;-85
2023/02/09 08:26:09;;;;;;;33.27;14.93;;;;;;;;;;5023539;28;20222;-84
2023/02/09 08:28:37;;;;;;;17.77;11.17;;;;;;;;;;4957639;28;20305;-85
2023/02/09 08:31:03;;;;;;;14.20;11.10;;;;;;;;;;4963786;28;20218;-83
2023/02/09 08:33:28;;;;;;;13.13;10.53;;;;;;;;;;4972990;28;20222;-83
2023/02/09 08:35:54;;;;;;;15.70;11.17;;;;;;;;;;4967890;28;21227;-84
2023/02/09 08:38:20;;;;;;;23.90;12.90;;;;;;;;;;4974013;28;20226;-85
2023/02/09 08:40:45;;;;;;;19.57;11.50;;;;;;;;;;4967292;28;20284;-82
2023/02/09 08:43:11;;;;;;;15.13;10.47;;;;;;;;;;4963194;28;20316;-84
2023/02/09 08:45:40;;;;;;;34.47;21.33;;;;;;;;;;4972588;28;20728;-83
2023/02/09 08:48:05;;;;;;;44.10;22.93;;;;;;;;;;4966847;28;20245;-82
2023/02/09 08:50:35;;;;;;;33.17;19.70;;;;;;;;;;4958279;28;20226;-85
2023/02/09 08:53:03;;;;;;;32.87;19.57;;;;;;;;;;4971941;28;20279;-82
2023/02/09 08:55:29;;;;;;;28.83;16.53;;;;;;;;;;4957701;28;20687;-83
2023/02/09 08:57:55;;;;;;;36.43;19.40;;;;;;;;;;5005628;28;20222;-84
2023/02/09 09:00:20;;;;;;;31.00;18.70;;;;;;;;;;4975730;28;20597;-84
2023/02/09 09:02:46;;;;;;;19.70;16.40;;;;;;;;;;4978666;28;20222;-83
2023/02/09 09:05:12;;;;;;;13.80;12.40;;;;;;;;;;4994341;28;20213;-84
2023/02/09 09:07:37;;;;;;;10.40;9.40;;;;;;;;;;4978983;28;20221;-85
2023/02/09 09:10:03;;;;;;;27.53;12.93;;;;;;;;;;4965782;28;20221;-82
2023/02/09 09:12:29;;;;;;;11.43;9.97;;;;;;;;;;5006633;28;20229;-83
2023/02/09 09:14:55;;;;;;;18.80;11.27;;;;;;;;;;5008379;28;20253;-84
2023/02/09 09:17:22;;;;;;;16.70;10.03;;;;;;;;;;4989911;28;20233;-82
2023/02/09 09:19:51;;;;;;;14.47;10.03;;;;;;;;;;4991589;28;20285;-83
2023/02/09 09:22:19;;;;;;;15.83;9.97;;;;;;;;;;4993527;28;20226;-85
2023/02/09 09:24:47;;;;;;;19.93;9.87;;;;;;;;;;4973303;28;20641;-83
2023/02/09 09:27:13;;;;;;;18.43;10.33;;;;;;;;;;4982937;28;20217;-83
2023/02/09 09:29:39;;;;;;;15.90;10.60;;;;;;;;;;5010489;28;20313;-84
2023/02/09 09:32:09;;;;;;;14.70;9.87;;;;;;;;;;4995303;28;20214;-84
2023/02/09 09:34:34;;;;;;;19.77;10.70;;;;;;;;;;5006884;28;20234;-84
2023/02/09 09:37:02;;;;;;;17.20;10.47;;;;;;;;;;4979034;28;20225;-83
2023/02/09 09:39:30;;;;;;;10.57;9.37;;;;;;;;;;4998467;28;20317;-84
2023/02/09 09:41:58;;;;;;;11.70;9.80;;;;;;;;;;4993622;28;20455;-85
2023/02/09 09:44:34;;;;;;;10.80;9.23;;;;;;;;;;4964130;28;20233;-84
2023/02/09 09:47:06;;;;;;;25.93;11.97;;;;;;;;;;5014009;28;20244;-83
2023/02/09 09:49:31;;;;;;;11.00;9.07;;;;;;;;;;4983875;28;20376;-83
2023/02/09 09:52:08;;;;;;;10.83;8.83;;;;;;;;;;4994333;28;20230;-83
2023/02/09 09:54:34;;;;;;;19.27;10.50;;;;;;;;;;5000585;28;20229;-82
2023/02/09 09:56:59;;;;;;;9.73;8.73;;;;;;;;;;4971309;28;20222;-84
2023/02/09 09:59:27;;;;;;;15.80;9.53;;;;;;;;;;4974112;28;20290;-83
2023/02/09 10:01:53;;;;;;;10.97;7.80;;;;;;;;;;4969682;28;20300;-86
2023/02/09 10:04:23;;;;;;;10.60;7.37;;;;;;;;;;4980572;28;20294;-84
2023/02/09 10:06:55;;;;;;;11.00;8.47;;;;;;;;;;4994009;28;20592;-83
2023/02/09 10:09:34;;;;;;;9.80;8.80;;;;;;;;;;5012423;28;20760;-84
2023/02/09 10:12:04;;;;;;;10.10;7.57;;;;;;;;;;4978475;28;20227;-83
2023/02/09 10:14:30;;;;;;;11.20;8.80;;;;;;;;;;4996070;28;20603;-83
2023/02/09 10:16:55;;;;;;;10.57;9.43;;;;;;;;;;4996180;28;20225;-83
2023/02/09 10:19:24;;;;;;;8.50;7.70;;;;;;;;;;4997591;28;20248;-82
2023/02/09 10:21:51;;;;;;;8.77;7.77;;;;;;;;;;4973399;28;20236;-82
2023/02/09 10:24:27;;;;;;;9.77;7.80;;;;;;;;;;4993162;28;20214;-84
2023/02/09 10:27:13;;;;;;;15.27;8.70;;;;;;;;;;4963665;28;20217;-84
2023/02/09 10:29:44;;;;;;;12.93;7.57;;;;;;;;;;4944301;28;20264;-83
2023/02/09 10:32:18;;;;;;;8.30;6.93;;;;;;;;;;4981457;28;20213;-84
2023/02/09 10:34:52;;;;;;;17.27;9.37;;;;;;;;;;4965536;28;20291;-85
2023/02/09 10:37:33;;;;;;;17.07;8.90;;;;;;;;;;4975317;28;20222;-84
2023/02/09 10:40:21;;;;;;;8.23;7.00;;;;;;;;;;4996885;28;20225;-87
2023/02/09 10:42:53;;;;;;;7.93;7.13;;;;;;;;;;5007375;28;20241;-85
2023/02/09 10:45:28;;;;;;;13.80;7.90;;;;;;;;;;4985218;28;20221;-85
2023/02/09 10:48:13;;;;;;;13.07;8.33;;;;;;;;;;4996518;28;20213;-83
2023/02/09 10:50:51;;;;;;;17.40;9.80;;;;;;;;;;4958298;28;20606;-86
2023/02/09 10:53:33;;;;;;;7.83;6.80;;;;;;;;;;4987619;28;20316;-86
2023/02/09 10:56:08;;;;;;;10.73;7.67;;;;;;;;;;4981490;28;20264;-90
2023/02/09 11:01:58;;;;;;;7.67;6.97;;;;;;;;;;4963178;28;20260;-75
2023/02/09 11:04:25;;;;;;;12.10;9.90;;;;;;;;;;4934484;28;20226;-74
2023/02/09 11:06:58;;;;;;;8.50;6.93;;;;;;;;;;4967868;28;20226;-74
2023/02/09 11:09:32;;;;;;;10.53;7.90;;;;;;;;;;4931892;28;20230;-75
2023/02/09 11:11:58;;;;;;;9.40;7.57;;;;;;;;;;4948091;28;20214;-75
2023/02/09 11:14:23;;;;;;;7.60;6.90;;;;;;;;;;4951749;28;20725;-74
2023/02/09 11:16:49;;;;;;;8.10;7.30;;;;;;;;;;4952750;28;20241;-73
2023/02/09 11:19:21;;;;;;;7.33;6.60;;;;;;;;;;4961461;28;20532;-74
2023/02/09 11:21:58;;;;;;;13.50;7.83;;;;;;;;;;4963441;28;20741;-74
2023/02/09 11:24:31;;;;;;;20.80;9.23;;;;;;;;;;4958787;28;20229;-73
2023/02/09 11:27:06;;;;;;;24.60;9.03;;;;;;;;;;4976203;28;20218;-74
2023/02/09 11:30:06;;;;;;;7.90;7.20;;;;;;;;;;4933703;28;20233;-74
2023/02/09 11:32:38;;;;;;;11.23;7.27;;;;;;;;;;4943692;28;20230;-74
2023/02/09 11:35:10;;;;;;;21.17;8.63;;;;;;;;;;4959395;28;20232;-74
2023/02/09 11:37:36;;;;;;;10.07;7.73;;;;;;;;;;4967916;28;20225;-74
2023/02/09 11:40:14;;;;;;;8.07;6.97;;;;;;;;;;4971523;28;20256;-74
2023/02/09 11:42:49;;;;;;;7.43;6.73;;;;;;;;;;4976743;28;20328;-74
2023/02/09 11:45:36;;;;;;;7.63;6.93;;;;;;;;;;4951175;28;20223;-73
2023/02/09 11:48:13;;;;;;;8.57;7.70;;;;;;;;;;4963997;28;20230;-74
2023/02/09 11:50:54;;;;;;;7.47;6.70;;;;;;;;;;4969847;28;20237;-74
2023/02/09 11:53:41;;;;;;;9.43;6.87;;;;;;;;;;4978790;28;20915;-74
2023/02/09 11:56:13;;;;;;;7.43;6.00;;;;;;;;;;4964261;28;20218;-74
2023/02/09 11:58:58;;;;;;;20.03;8.70;;;;;;;;;;4961492;28;20251;-74
2023/02/09 12:01:25;;;;;;;10.60;9.40;;;;;;;;;;4961748;28;20221;-74
2023/02/09 12:04:02;;;;;;;15.17;7.27;;;;;;;;;;4978356;28;20332;-75
2023/02/09 12:06:44;;;;;;;15.27;7.37;;;;;;;;;;4935244;28;20277;-74
2023/02/09 12:09:37;;;;;;;10.97;7.57;;;;;;;;;;4930184;28;20564;-74
2023/02/09 12:12:28;;;;;;;7.73;6.93;;;;;;;;;;4975724;28;20209;-75
2023/02/09 12:14:53;;;;;;;19.60;14.37;;;;;;;;;;4980641;28;20612;-75
2023/02/09 12:17:57;;;;;;;8.10;7.30;;;;;;;;;;4976249;28;20219;-74
2023/02/09 12:20:36;;;;;;;12.33;7.90;;;;;;;;;;4950596;28;20233;-73
2023/02/09 12:23:06;;;;;;;9.40;6.80;;;;;;;;;;4975717;28;20222;-74
2023/02/09 12:25:53;;;;;;;8.57;6.40;;;;;;;;;;4975843;28;20226;-74
2023/02/09 12:28:31;;;;;;;8.50;6.83;;;;;;;;;;4935238;28;20276;-74
2023/02/09 12:31:00;;;;;;;8.10;7.30;;;;;;;;;;4961965;28;20225;-73
2023/02/09 12:33:25;;;;;;;7.60;6.90;;;;;;;;;;4962010;28;20714;-73
2023/02/09 12:36:02;;;;;;;9.33;7.20;;;;;;;;;;4980988;28;20305;-73
2023/02/09 12:38:42;;;;;;;21.57;9.10;;;;;;;;;;4949943;28;20229;-74
2023/02/09 12:41:08;;;;;;;16.47;8.47;;;;;;;;;;4971822;28;20229;-74
2023/02/09 12:43:36;;;;;;;10.37;7.37;;;;;;;;;;4963085;28;20644;-74
2023/02/09 12:46:25;;;;;;;14.70;9.00;;;;;;;;;;4970783;28;20222;-74
2023/02/09 12:49:07;;;;;;;19.73;8.63;;;;;;;;;;4978826;28;20230;-74
2023/02/09 12:51:44;;;;;;;33.70;11.20;;;;;;;;;;4966552;28;20777;-73
2023/02/09 12:54:31;;;;;;;12.70;7.37;;;;;;;;;;4964734;28;20229;-74
2023/02/09 12:57:18;;;;;;;11.10;8.90;;;;;;;;;;4964482;28;20227;-74
2023/02/09 12:59:54;;;;;;;6.77;6.17;;;;;;;;;;4970601;28;20221;-73
2023/02/09 13:02:22;;;;;;;8.30;7.00;;;;;;;;;;4961431;28;20251;-74
2023/02/09 13:05:10;;;;;;;9.27;6.73;;;;;;;;;;4978850;28;20289;-74
2023/02/09 13:07:48;;;;;;;16.90;7.03;;;;;;;;;;4963967;28;20253;-74
2023/02/09 13:10:32;;;;;;;10.83;7.43;;;;;;;;;;4962968;28;20223;-74
2023/02/09 13:13:10;;;;;;;8.43;7.07;;;;;;;;;;4965786;28;20231;-74
2023/02/09 13:16:03;;;;;;;7.97;7.17;;;;;;;;;;4957006;28;20616;-73
2023/02/09 13:19:09;;;;;;;9.53;6.77;;;;;;;;;;4959013;28;20723;-74
2023/02/09 13:21:52;;;;;;;8.23;6.70;;;;;;;;;;4971806;28;20234;-74
2023/02/09 13:24:34;;;;;;;10.37;7.50;;;;;;;;;;4957091;28;20289;-74
2023/02/09 13:27:02;;;;;;;9.57;7.07;;;;;;;;;;4938144;28;20222;-74
2023/02/09 13:29:33;;;;;;;8.67;7.67;;;;;;;;;;4960968;28;21122;-73
2023/02/09 13:32:14;;;;;;;8.43;6.87;;;;;;;;;;4963876;28;20219;-73
2023/02/09 13:35:00;;;;;;;8.93;6.73;;;;;;;;;;4947829;28;20784;-73
2023/02/09 13:37:43;;;;;;;9.47;6.57;;;;;;;;;;4963738;28;20223;-73
2023/02/09 13:40:32;;;;;;;7.90;6.87;;;;;;;;;;4953358;28;20691;-73
2023/02/09 13:43:10;;;;;;;8.03;7.13;;;;;;;;;;4968441;28;20456;-73
2023/02/09 13:45:53;;;;;;;9.13;6.90;;;;;;;;;;4959478;28;20246;-73
2023/02/09 13:48:26;;;;;;;7.13;6.43;;;;;;;;;;4955665;28;20218;-72
2023/02/09 13:50:58;;;;;;;7.60;6.67;;;;;;;;;;4981273;28;20219;-73
2023/02/09 13:53:27;;;;;;;9.13;7.47;;;;;;;;;;4953556;28;20258;-73
2023/02/09 13:55:56;;;;;;;9.10;7.17;;;;;;;;;;4953491;28;20237;-72
2023/02/09 13:58:28;;;;;;;8.67;7.43;;;;;;;;;;4963223;28;20309;-73
2023/02/09 14:01:04;;;;;;;8.00;7.27;;;;;;;;;;4965422;28;20226;-73
2023/02/09 14:03:39;;;;;;;8.77;7.87;;;;;;;;;;4961698;28;21015;-73
2023/02/09 14:06:22;;;;;;;9.13;7.50;;;;;;;;;;4970280;28;20230;-73
2023/02/09 14:08:47;;;;;;;9.63;7.30;;;;;;;;;;4965887;28;20653;-72
2023/02/09 14:11:30;;;;;;;9.17;7.20;;;;;;;;;;4948612;28;20222;-73
2023/02/09 14:14:14;;;;;;;12.97;8.60;;;;;;;;;;4965598;28;20777;-73
2023/02/09 14:16:40;;;;;;;8.97;7.60;;;;;;;;;;4954161;28;20237;-73
2023/02/09 14:19:26;;;;;;;10.03;7.20;;;;;;;;;;4978219;28;21254;-73
2023/02/09 14:21:56;;;;;;;7.27;6.53;;;;;;;;;;4968577;28;20306;-73
2023/02/09 14:24:54;;;;;;;7.80;6.87;;;;;;;;;;4953531;28;20301;-73
2023/02/09 14:27:25;;;;;;;10.30;6.83;;;;;;;;;;4964715;28;20297;-73
2023/02/09 14:29:55;;;;;;;7.27;6.33;;;;;;;;;;4953227;28;20344;-73
2023/02/09 14:32:34;;;;;;;8.77;7.20;;;;;;;;;;4963045;28;20250;-73
2023/02/09 14:35:19;;;;;;;7.70;6.90;;;;;;;;;;4951096;28;20238;-73
2023/02/09 14:37:52;;;;;;;8.53;7.37;;;;;;;;;;4974616;28;20309;-75
2023/02/09 14:40:30;;;;;;;10.80;9.67;;;;;;;;;;4943518;28;20310;-73
2023/02/09 14:43:01;;;;;;;14.90;13.50;;;;;;;;;;4960618;28;20258;-72
2023/02/09 14:45:36;;;;;;;9.93;8.37;;;;;;;;;;4964469;28;20293;-73
2023/02/09 14:48:14;;;;;;;7.73;7.03;;;;;;;;;;4951254;28;20234;-73
2023/02/09 14:50:42;;;;;;;8.67;7.60;;;;;;;;;;4982383;28;20238;-73
2023/02/09 14:53:09;;;;;;;7.77;7.07;;;;;;;;;;4966812;28;20306;-73
2023/02/09 14:55:39;;;;;;;7.80;7.10;;;;;;;;;;4929525;28;20253;-73